Time;durP1;ratioP1;P1;durP2;ratioP2;P2;SDS_P1;SDS_P2;PMS_P1;PMS_P2;Temp;Humidity;BMP_temperature;BMP_pressure;BME280_temperature;BME280_humidity;BME280_pressure;Samples;Min_cycle;Max_cycle;Signal;HPM_P1;HPM_P2
2023/05/25 00:02:03;;;;;;;0.17;0.17;;;;;;;14.30;100.00;100065.66;6012958;23;20025;-88
2023/05/25 00:04:35;;;;;;;0.40;0.40;;;;;;;14.28;100.00;100074.47;6014634;23;20473;-89
2023/05/25 00:07:02;;;;;;;0.82;0.82;;;;;;;14.18;100.00;100064.56;5991141;23;20027;-88
2023/05/25 00:09:28;;;;;;;0.65;0.65;;;;;;;14.10;100.00;100048.56;6037602;23;20015;-88
2023/05/25 00:11:53;;;;;;;1.00;0.60;;;;;;;14.21;100.00;100068.41;6014695;23;20033;-92
2023/05/25 00:14:19;;;;;;;0.10;0.10;;;;;;;14.05;100.00;100057.53;6014865;23;20430;-92
2023/05/25 00:16:47;;;;;;;0.17;0.17;;;;;;;14.06;100.00;100073.03;6014640;23;20022;-92
2023/05/25 00:19:13;;;;;;;1.05;0.95;;;;;;;13.89;100.00;100048.19;6028058;23;20029;-91
2023/05/25 00:21:38;;;;;;;1.98;0.85;;;;;;;13.84;100.00;100051.56;6019106;23;20022;-92
2023/05/25 00:24:04;;;;;;;0.10;0.10;;;;;;;13.83;100.00;100052.78;6019142;23;20329;-91
2023/05/25 00:26:30;;;;;;;1.83;1.73;;;;;;;13.75;100.00;100059.88;6018652;23;20121;-91
2023/05/25 00:28:56;;;;;;;0.65;0.65;;;;;;;14.11;100.00;100114.28;6067392;23;20041;-89
2023/05/25 00:31:21;;;;;;;0.40;0.30;;;;;;;13.82;100.00;100081.94;6041670;23;20026;-91
2023/05/25 00:33:47;;;;;;;0.47;0.47;;;;;;;13.88;100.00;100107.97;6067516;23;20058;-92
2023/05/25 00:36:12;;;;;;;0.93;0.70;;;;;;;13.93;100.00;100115.75;6042592;23;20516;-91
2023/05/25 00:38:38;;;;;;;1.77;1.30;;;;;;;13.86;100.00;100113.25;6090636;23;20010;-90
2023/05/25 00:41:04;;;;;;;4.18;0.90;;;;;;;13.53;100.00;100075.91;6019391;23;20050;-92
2023/05/25 00:43:30;;;;;;;0.22;0.22;;;;;;;13.80;100.00;100117.84;6042918;23;20097;-91
2023/05/25 00:45:57;;;;;;;0.80;0.60;;;;;;;13.59;100.00;100101.19;6042124;23;20017;-92
2023/05/25 00:48:25;;;;;;;2.40;1.05;;;;;;;13.73;100.00;100101.41;6019529;23;20014;-90
2023/05/25 00:50:53;;;;;;;0.93;0.93;;;;;;;13.48;100.00;100079.28;6018243;23;20033;-91
2023/05/25 00:53:19;;;;;;;0.20;0.20;;;;;;;13.72;100.00;100111.00;6018850;23;20097;-92
2023/05/25 00:55:49;;;;;;;0.63;0.63;;;;;;;13.66;100.00;100112.84;6018581;23;20141;-92
2023/05/25 00:58:17;;;;;;;0.77;0.77;;;;;;;13.64;100.00;100120.06;6066722;23;20282;-91
2023/05/25 01:03:27;;;;;;;0.45;0.45;;;;;;;13.41;100.00;100079.53;6153603;23;20359;-93
2023/05/25 01:05:54;;;;;;;0.40;0.40;;;;;;;13.43;100.00;100089.00;6129231;23;20355;-92
2023/05/25 01:08:22;;;;;;;0.32;0.32;;;;;;;13.43;100.00;100093.78;6130234;23;20021;-93
2023/05/25 01:10:48;;;;;;;0.75;0.75;;;;;;;13.51;100.00;100120.94;6128085;23;20020;-93
2023/05/25 01:13:16;;;;;;;0.20;0.20;;;;;;;13.49;100.00;100111.47;6129930;23;20037;-94
2023/05/25 01:15:42;;;;;;;0.77;0.77;;;;;;;13.47;100.00;100111.16;6128684;23;20017;-93
2023/05/25 01:18:08;;;;;;;1.08;0.43;;;;;;;13.28;100.00;100084.41;6105104;23;20023;-93
2023/05/25 01:20:34;;;;;;;0.82;0.82;;;;;;;13.22;100.00;100072.31;6130206;23;20043;-93
2023/05/25 01:23:12;;;;;;;0.40;0.40;;;;;;;13.24;100.00;100078.19;6129956;23;20017;-93
2023/05/25 01:25:50;;;;;;;1.63;1.35;;;;;;;13.42;100.00;100114.53;6104788;23;20421;-92
2023/05/25 01:28:27;;;;;;;0.60;0.60;;;;;;;13.38;100.00;100111.88;6128980;23;20017;-92
2023/05/25 01:30:53;;;;;;;0.55;0.50;;;;;;;13.37;100.00;100109.53;6122821;23;20024;-92
2023/05/25 01:33:20;;;;;;;0.35;0.35;;;;;;;13.30;100.00;100109.81;6125906;23;20108;-92
2023/05/25 01:35:46;;;;;;;2.08;1.10;;;;;;;13.23;100.00;100113.63;6129804;23;20456;-93
2023/05/25 01:38:12;;;;;;;0.95;0.95;;;;;;;13.06;100.00;100093.50;6129261;23;20112;-93
2023/05/25 01:40:38;;;;;;;0.80;0.80;;;;;;;13.16;100.00;100104.75;6130015;23;20001;-92
2023/05/25 01:43:04;;;;;;;1.38;1.13;;;;;;;13.14;100.00;100110.78;6128577;23;20012;-92
2023/05/25 01:45:32;;;;;;;0.65;0.65;;;;;;;12.95;100.00;100087.53;6129512;23;20008;-92
2023/05/25 01:48:08;;;;;;;0.20;0.20;;;;;;;12.94;100.00;100097.13;6104372;23;20039;-93
2023/05/25 01:50:46;;;;;;;1.90;1.80;;;;;;;13.10;100.00;100124.06;6129317;23;20092;-93
2023/05/25 01:53:18;;;;;;;0.77;0.77;;;;;;;12.85;100.00;100099.06;6129878;23;20017;-93
2023/05/25 01:55:49;;;;;;;1.77;1.67;;;;;;;13.07;100.00;100133.25;6129208;23;20096;-93
2023/05/25 01:58:16;;;;;;;0.35;0.35;;;;;;;13.03;100.00;100138.97;6105633;23;20462;-92
2023/05/25 02:00:41;;;;;;;1.38;1.17;;;;;;;13.03;100.00;100136.19;6127563;23;20025;-92
2023/05/25 02:03:08;;;;;;;1.45;0.88;;;;;;;12.86;100.00;100115.28;6094680;23;20050;-92
2023/05/25 02:05:34;;;;;;;0.55;0.55;;;;;;;12.94;100.00;100141.66;6071598;23;20448;-92
2023/05/25 02:08:00;;;;;;;0.65;0.65;;;;;;;13.00;100.00;100145.44;6096594;23;20106;-92
2023/05/25 02:10:31;;;;;;;1.30;1.02;;;;;;;12.80;100.00;100122.69;6096920;23;20102;-92
2023/05/25 02:12:57;;;;;;;0.90;0.90;;;;;;;12.89;100.00;100150.59;6096778;23;20014;-93
2023/05/25 02:15:23;;;;;;;0.73;0.63;;;;;;;12.79;100.00;100148.94;6072400;23;20032;-91
2023/05/25 02:17:49;;;;;;;0.43;0.43;;;;;;;12.58;100.00;100125.41;6072799;23;20018;-92
2023/05/25 02:20:15;;;;;;;0.70;0.70;;;;;;;12.76;100.00;100161.00;6121499;23;20014;-92
2023/05/25 02:22:40;;;;;;;0.70;0.70;;;;;;;12.55;100.00;100147.78;6097623;23;20014;-90
2023/05/25 02:25:07;;;;;;;0.50;0.50;;;;;;;12.64;100.00;100161.78;6096260;23;20700;-89
2023/05/25 02:27:34;;;;;;;0.40;0.40;;;;;;;12.67;100.00;100174.81;6120640;23;20018;-89
2023/05/25 02:30:00;;;;;;;1.85;1.75;;;;;;;12.49;100.00;100155.16;6071380;23;20074;-90
2023/05/25 02:32:28;;;;;;;4.63;1.38;;;;;;;12.22;100.00;100127.00;6096424;23;20014;-90
2023/05/25 02:34:54;;;;;;;0.50;0.50;;;;;;;12.51;100.00;100174.94;6096102;23;20018;-90
2023/05/25 02:37:20;;;;;;;0.80;0.75;;;;;;;12.21;100.00;100150.50;6121169;23;20018;-90
2023/05/25 02:39:47;;;;;;;0.65;0.65;;;;;;;12.22;100.00;100152.03;6120173;23;20046;-90
2023/05/25 02:42:12;;;;;;;1.48;1.38;;;;;;;12.36;100.00;100190.53;6096484;23;20313;-89
2023/05/25 02:44:38;;;;;;;0.28;0.28;;;;;;;12.12;100.00;100160.28;6071909;23;20020;-90
2023/05/25 02:47:05;;;;;;;0.85;0.85;;;;;;;12.18;100.00;100173.59;6096064;23;20018;-89
2023/05/25 02:49:33;;;;;;;0.90;0.90;;;;;;;12.23;100.00;100196.09;6095899;23;20018;-90
2023/05/25 02:51:58;;;;;;;0.50;0.50;;;;;;;12.25;100.00;100201.22;6096517;23;20029;-89
2023/05/25 02:54:24;;;;;;;3.20;2.50;;;;;;;12.23;100.00;100192.53;6096031;23;20101;-89
2023/05/25 02:56:50;;;;;;;0.90;0.80;;;;;;;11.93;100.00;100163.28;6120780;23;20013;-90
2023/05/25 02:59:16;;;;;;;1.13;1.05;;;;;;;11.99;100.00;100176.16;6119526;23;20041;-89
2023/05/25 03:01:42;;;;;;;1.10;0.77;;;;;;;11.98;100.00;100166.25;6095442;23;20108;-90
2023/05/25 03:04:08;;;;;;;0.98;0.82;;;;;;;11.91;100.00;100160.94;6125088;23;20072;-89
2023/05/25 03:06:36;;;;;;;0.55;0.55;;;;;;;12.07;100.00;100174.72;6125754;23;20021;-90
2023/05/25 03:09:20;;;;;;;1.45;0.55;;;;;;;11.82;100.00;100155.25;6083781;23;20083;-90
2023/05/25 03:11:48;;;;;;;2.28;1.92;;;;;;;11.84;100.00;100171.47;6101587;23;20109;-90
2023/05/25 03:14:16;;;;;;;0.80;0.80;;;;;;;11.84;100.00;100171.47;6125374;23;20013;-89
2023/05/25 03:16:47;;;;;;;1.33;1.25;;;;;;;12.02;100.00;100199.50;6078059;23;20033;-90
2023/05/25 03:19:13;;;;;;;0.43;0.43;;;;;;;11.88;100.00;100172.94;6077312;23;20436;-89
2023/05/25 03:21:38;;;;;;;1.38;1.08;;;;;;;11.93;100.00;100185.50;6100927;23;20010;-90
2023/05/25 03:24:05;;;;;;;0.35;0.35;;;;;;;12.00;100.00;100196.41;6100354;23;20006;-89
2023/05/25 03:26:31;;;;;;;1.67;1.58;;;;;;;11.74;100.00;100156.66;6077173;23;20032;-90
2023/05/25 03:28:57;;;;;;;1.20;1.10;;;;;;;11.97;100.00;100192.50;6125120;23;20030;-89
2023/05/25 03:31:23;;;;;;;1.00;1.00;;;;;;;12.00;100.00;100208.31;6076061;23;20060;-92
2023/05/25 03:33:48;;;;;;;1.60;1.17;;;;;;;11.79;100.00;100181.13;6126010;23;20026;-93
2023/05/25 03:36:16;;;;;;;1.73;1.63;;;;;;;11.88;100.00;100199.94;6126250;23;20052;-94
2023/05/25 03:38:45;;;;;;;2.90;2.17;;;;;;;11.80;100.00;100187.47;6125894;23;20013;-93
2023/05/25 03:41:10;;;;;;;2.22;1.77;;;;;;;11.95;100.00;100216.41;6100152;23;20459;-93
2023/05/25 03:43:36;;;;;;;2.40;2.20;;;;;;;11.83;100.00;100203.25;6101304;23;20021;-93
2023/05/25 03:46:04;;;;;;;1.40;1.27;;;;;;;11.82;100.00;100201.69;6125357;23;20013;-92
2023/05/25 03:48:30;;;;;;;1.23;1.13;;;;;;;11.79;100.00;100203.38;6077479;23;20618;-89
2023/05/25 03:50:55;;;;;;;4.85;1.90;;;;;;;11.84;100.00;100215.94;6124076;23;20367;-89
2023/05/25 03:53:21;;;;;;;1.50;1.02;;;;;;;11.87;100.00;100221.41;6100774;23;20017;-90
2023/05/25 03:55:50;;;;;;;2.70;2.45;;;;;;;11.86;100.00;100222.63;6099884;23;20014;-90
2023/05/25 03:58:17;;;;;;;2.20;2.10;;;;;;;11.72;100.00;100197.25;6077505;23;20447;-89
2023/05/25 04:00:47;;;;;;;2.50;2.30;;;;;;;11.89;100.00;100223.75;6123922;23;20073;-89
2023/05/25 04:03:14;;;;;;;1.38;1.27;;;;;;;11.79;100.00;100203.38;6124210;23;20060;-89
2023/05/25 04:05:40;;;;;;;1.50;1.40;;;;;;;11.82;100.00;100208.03;6076263;23;20028;-90
2023/05/25 04:08:07;;;;;;;15.43;1.38;;;;;;;12.02;100.00;100246.78;6124640;23;20092;-89
2023/05/25 04:10:34;;;;;;;1.85;1.75;;;;;;;11.84;100.00;100222.28;6100605;23;20021;-89
2023/05/25 04:12:59;;;;;;;1.88;1.77;;;;;;;12.05;100.00;100243.88;6124133;23;20526;-90
2023/05/25 04:15:26;;;;;;;1.17;1.08;;;;;;;12.09;100.00;100244.56;6123752;23;20083;-90
2023/05/25 04:18:01;;;;;;;2.53;2.00;;;;;;;11.97;100.00;100228.63;6101501;23;20005;-89
2023/05/25 04:20:27;;;;;;;1.42;1.05;;;;;;;12.11;100.00;100256.03;6100291;23;20456;-89
2023/05/25 04:22:54;;;;;;;9.25;1.63;;;;;;;12.13;100.00;100242.47;6100337;23;20467;-90
2023/05/25 04:25:21;;;;;;;1.33;1.33;;;;;;;12.18;100.00;100257.03;6124228;23;20523;-89
2023/05/25 04:27:47;;;;;;;0.40;0.40;;;;;;;12.00;100.00;100213.09;6076257;23;20017;-89
2023/05/25 04:30:20;;;;;;;1.25;1.23;;;;;;;12.06;100.00;100217.66;6100205;23;20028;-89
2023/05/25 04:33:13;;;;;;;0.83;0.83;;;;;;;12.13;100.00;100223.00;6118530;23;20041;-88
2023/05/25 04:36:05;;;;;;;0.30;0.30;;;;;;;12.40;100.00;100257.97;6128375;23;20017;-89
2023/05/25 04:38:32;;;;;;;1.50;1.40;;;;;;;12.39;100.00;100239.72;6124282;23;20045;-88
2023/05/25 04:41:00;;;;;;;3.20;1.23;;;;;;;12.30;100.00;100215.34;6148389;23;20372;-87
2023/05/25 04:43:28;;;;;;;1.90;1.70;;;;;;;12.37;100.00;100214.34;6150716;23;20018;-88
2023/05/25 04:45:55;;;;;;;0.95;0.57;;;;;;;12.69;100.00;100252.28;6122901;23;20458;-87
2023/05/25 04:48:23;;;;;;;1.25;1.15;;;;;;;12.75;100.00;100245.72;6123121;23;20403;-90
2023/05/25 04:50:49;;;;;;;1.02;0.65;;;;;;;12.87;100.00;100258.06;6123217;23;20018;-90
2023/05/25 04:53:14;;;;;;;1.67;1.58;;;;;;;12.96;100.00;100267.31;6123593;23;20618;-89
2023/05/25 04:55:41;;;;;;;2.47;2.30;;;;;;;12.82;100.00;100228.78;6098386;23;20020;-89
2023/05/25 04:58:07;;;;;;;1.55;1.40;;;;;;;13.13;100.00;100261.63;6123193;23;20069;-89
2023/05/25 05:00:33;;;;;;;1.15;1.10;;;;;;;13.17;100.00;100271.41;6122656;23;20013;-89
2023/05/25 05:03:00;;;;;;;1.08;1.05;;;;;;;13.19;100.00;100251.44;6123039;23;20112;-89
2023/05/25 05:05:26;;;;;;;1.73;1.63;;;;;;;13.34;100.00;100266.47;6150289;23;20451;-89
2023/05/25 05:07:53;;;;;;;1.20;1.10;;;;;;;13.18;100.00;100233.19;6123692;23;20021;-89
2023/05/25 05:10:19;;;;;;;1.13;1.08;;;;;;;13.38;100.00;100253.97;6123857;23;20451;-90
2023/05/25 05:12:49;;;;;;;0.55;0.55;;;;;;;13.34;100.00;100219.91;6123955;23;20037;-90
2023/05/25 05:15:15;;;;;;;0.75;0.70;;;;;;;13.69;100.00;100270.78;6122964;23;20092;-90
2023/05/25 05:17:43;;;;;;;2.33;1.60;;;;;;;13.68;100.00;100244.16;6100272;23;20025;-89
2023/05/25 05:20:12;;;;;;;3.45;1.52;;;;;;;13.84;100.00;100251.53;6124048;23;20025;-90
2023/05/25 05:22:37;;;;;;;0.90;0.77;;;;;;;13.73;100.00;100224.06;6123803;23;20076;-90
2023/05/25 05:25:03;;;;;;;2.45;0.90;;;;;;;13.94;100.00;100248.38;6148931;23;20081;-89
2023/05/25 05:27:29;;;;;;;2.22;2.03;;;;;;;14.15;100.00;100268.34;6100493;23;20013;-89
2023/05/25 05:30:18;;;;;;;1.77;1.30;;;;;;;13.80;100.00;100212.63;6119765;23;20068;-89
2023/05/25 05:32:44;;;;;;;2.95;1.60;;;;;;;14.03;100.00;100236.50;6123301;23;20441;-89
2023/05/25 05:35:10;;;;;;;1.48;1.38;;;;;;;14.37;100.00;100266.31;6099465;23;20010;-90
2023/05/25 05:37:46;;;;;;;0.45;0.45;;;;;;;14.25;100.00;100253.19;6123289;23;20021;-90
2023/05/25 05:40:12;;;;;;;1.45;1.35;;;;;;;14.36;100.00;100239.63;6099255;23;20013;-89
2023/05/25 05:42:41;;;;;;;1.63;1.13;;;;;;;14.59;100.00;100272.63;6099090;23;20050;-89
2023/05/25 05:45:07;;;;;;;1.58;0.85;;;;;;;14.69;100.00;100265.06;6147200;23;20498;-90
2023/05/25 05:47:33;;;;;;;2.60;1.15;;;;;;;14.55;100.00;100227.34;6123958;23;20048;-89
2023/05/25 05:49:58;;;;;;;1.70;1.25;;;;;;;14.76;100.00;100248.78;6147357;23;20143;-90
2023/05/25 05:52:24;;;;;;;1.15;1.05;;;;;;;15.08;100.00;100289.41;6099205;23;20017;-89
2023/05/25 05:54:50;;;;;;;2.47;0.77;;;;;;;15.08;100.00;100246.72;6149272;23;20013;-88
2023/05/25 05:57:15;;;;;;;0.57;0.57;;;;;;;15.10;100.00;100239.41;6124141;23;20471;-89
2023/05/25 05:59:42;;;;;;;0.57;0.57;;;;;;;15.16;100.00;100264.75;6099288;23;20049;-89
2023/05/25 06:02:07;;;;;;;1.13;0.90;;;;;;;15.40;100.00;100271.28;6100917;23;20181;-89
2023/05/25 06:04:33;;;;;;;2.13;1.38;;;;;;;15.54;100.00;100284.69;6100900;23;20359;-89
2023/05/25 06:06:58;;;;;;;3.38;1.67;;;;;;;15.71;100.00;100260.75;6125100;23;20101;-90
2023/05/25 06:09:25;;;;;;;0.68;0.68;;;;;;;15.68;100.00;100256.13;6150210;23;20045;-89
2023/05/25 06:11:51;;;;;;;1.52;1.35;;;;;;;16.00;100.00;100304.25;6075533;23;20068;-89
2023/05/25 06:14:17;;;;;;;0.65;0.65;;;;;;;16.13;100.00;100302.06;6075572;23;20009;-89
2023/05/25 06:16:43;;;;;;;1.55;0.88;;;;;;;16.18;100.00;100282.59;6099662;23;20029;-90
2023/05/25 06:19:08;;;;;;;2.92;1.48;;;;;;;16.31;100.00;100260.81;6123996;23;20467;-89
2023/05/25 06:21:36;;;;;;;0.38;0.38;;;;;;;16.74;100.00;100307.22;6124319;23;20028;-89
2023/05/25 06:24:02;;;;;;;1.30;1.10;;;;;;;16.48;100.00;100306.03;6123931;23;20024;-89
2023/05/25 06:26:27;;;;;;;0.85;0.85;;;;;;;16.64;100.00;100311.31;6099675;23;20372;-89
2023/05/25 06:28:53;;;;;;;2.10;0.63;;;;;;;16.41;100.00;100278.38;6124065;23;20013;-89
2023/05/25 06:31:19;;;;;;;1.33;1.23;;;;;;;16.92;100.00;100305.59;6074301;23;20404;-90
2023/05/25 06:33:45;;;;;;;1.08;0.85;;;;;;;16.85;100.00;100294.72;6099627;23;20024;-89
2023/05/25 06:36:12;;;;;;;1.55;1.25;;;;;;;17.05;100.00;100308.94;6099146;23;20416;-88
2023/05/25 06:38:38;;;;;;;0.38;0.38;;;;;;;17.14;100.00;100308.91;6123450;23;20151;-89
2023/05/25 06:41:06;;;;;;;0.93;0.93;;;;;;;17.01;100.00;100289.50;6099945;23;20112;-88
2023/05/25 06:43:32;;;;;;;1.05;0.70;;;;;;;17.34;100.00;100314.72;6075853;23;20076;-89
2023/05/25 06:46:20;;;;;;;1.05;0.85;;;;;;;17.36;100.00;100300.97;6120289;23;20024;-89
2023/05/25 06:48:46;;;;;;;5.47;1.77;;;;;;;17.47;100.00;100278.78;6099089;23;20017;-89
2023/05/25 06:51:12;;;;;;;0.47;0.47;;;;;;;17.71;100.00;100290.75;6098832;23;20027;-88
2023/05/25 06:53:40;;;;;;;0.35;0.35;;;;;;;17.92;100.00;100316.94;6124912;23;20033;-89
2023/05/25 06:56:06;;;;;;;0.95;0.90;;;;;;;17.96;100.00;100319.56;6126553;23;20028;-89
2023/05/25 06:58:32;;;;;;;1.65;1.27;;;;;;;17.67;100.00;100320.28;6125791;23;20092;-88
2023/05/25 07:00:59;;;;;;;0.98;0.82;;;;;;;17.75;100.00;100326.31;6099895;23;20014;-88
2023/05/25 07:03:25;;;;;;;1.52;1.35;;;;;;;18.05;100.00;100311.06;6091865;23;20079;-88
2023/05/25 07:05:51;;;;;;;2.15;1.92;;;;;;;17.75;100.00;100320.69;6125305;23;20060;-88
2023/05/25 07:08:16;;;;;;;0.57;0.57;;;;;;;17.62;100.00;100318.91;6125563;23;20013;-89
2023/05/25 07:10:42;;;;;;;1.02;0.93;;;;;;;17.93;100.00;100314.91;6123778;23;20028;-89
2023/05/25 07:13:09;;;;;;;1.77;1.27;;;;;;;17.78;100.00;100319.72;6123960;23;20032;-88
2023/05/25 07:15:34;;;;;;;2.97;0.95;;;;;;;17.66;100.00;100321.53;6100473;23;20020;-89
2023/05/25 07:18:00;;;;;;;1.52;1.42;;;;;;;17.94;100.00;100316.47;6100723;23;20014;-88
2023/05/25 07:20:26;;;;;;;2.13;1.45;;;;;;;18.04;100.00;100306.69;6125341;23;20104;-88
2023/05/25 07:22:52;;;;;;;1.10;1.00;;;;;;;18.41;100.00;100307.91;6124414;23;20417;-88
2023/05/25 07:25:18;;;;;;;0.70;0.52;;;;;;;18.66;96.99;100289.69;6101943;23;20013;-94
2023/05/25 07:27:47;;;;;;;0.47;0.40;;;;;;;19.15;94.37;100288.91;6101934;23;20017;-93
2023/05/25 07:30:13;;;;;;;1.00;0.98;;;;;;;19.23;91.63;100297.69;6100546;23;20087;-94
2023/05/25 07:32:39;;;;;;;1.00;0.93;;;;;;;19.15;90.79;100328.28;6125344;23;20116;-93
2023/05/25 07:35:05;;;;;;;2.30;1.15;;;;;;;19.33;90.88;100299.88;6126709;23;20516;-94
2023/05/25 07:37:31;;;;;;;0.65;0.47;;;;;;;19.45;88.48;100317.75;6101186;23;20017;-89
2023/05/25 07:39:56;;;;;;;0.52;0.52;;;;;;;19.60;88.00;100318.44;6149402;23;20288;-88
2023/05/25 07:42:22;;;;;;;0.20;0.20;;;;;;;19.48;88.63;100314.72;6124563;23;20080;-88
2023/05/25 07:44:47;;;;;;;1.08;0.68;;;;;;;19.63;88.50;100306.19;6123495;23;20013;-88
2023/05/25 07:47:13;;;;;;;0.57;0.57;;;;;;;19.81;85.66;100327.66;6124898;23;20025;-88
2023/05/25 07:49:39;;;;;;;0.40;0.40;;;;;;;19.74;87.72;100306.31;6149163;23;20017;-88
2023/05/25 07:52:05;;;;;;;2.50;1.10;;;;;;;19.83;85.44;100305.41;6124929;23;20017;-89
2023/05/25 07:54:31;;;;;;;1.27;1.00;;;;;;;20.18;85.16;100328.56;6100341;23;20120;-88
2023/05/25 07:56:56;;;;;;;1.58;1.15;;;;;;;20.14;82.40;100313.94;6124628;23;20013;-89
2023/05/25 07:59:22;;;;;;;0.95;0.52;;;;;;;20.24;80.93;100308.91;6100290;23;20025;-88
2023/05/25 08:01:47;;;;;;;0.82;0.77;;;;;;;20.58;81.74;100327.72;6123734;23;20025;-89
2023/05/25 08:04:13;;;;;;;0.70;0.68;;;;;;;20.71;80.40;100325.25;6124517;23;20013;-88
2023/05/25 08:06:38;;;;;;;0.63;0.63;;;;;;;20.75;77.78;100308.09;6100890;23;20068;-88
2023/05/25 08:09:05;;;;;;;1.08;0.65;;;;;;;20.74;78.35;100292.47;6100010;23;20333;-88
2023/05/25 08:11:30;;;;;;;0.68;0.68;;;;;;;20.69;77.18;100310.91;6125045;23;20013;-89
2023/05/25 08:13:56;;;;;;;1.00;0.98;;;;;;;20.41;76.56;100307.06;6125505;23;20017;-89
2023/05/25 08:16:22;;;;;;;1.75;0.60;;;;;;;20.47;77.42;100294.56;6123753;23;20017;-88
2023/05/25 08:18:47;;;;;;;0.25;0.25;;;;;;;20.65;78.63;100312.38;6124897;23;20053;-88
2023/05/25 08:21:13;;;;;;;1.98;1.77;;;;;;;20.82;77.83;100330.22;6150860;23;20444;-88
2023/05/25 08:23:41;;;;;;;0.63;0.55;;;;;;;20.99;76.11;100317.00;6150816;23;20009;-89
2023/05/25 08:26:13;;;;;;;0.85;0.85;;;;;;;20.97;76.55;100316.75;6124547;23;20436;-88
2023/05/25 08:28:38;;;;;;;0.80;0.80;;;;;;;21.08;76.31;100294.25;6125850;23;20053;-88
2023/05/25 08:31:04;;;;;;;1.33;1.10;;;;;;;21.55;75.42;100328.66;6149406;23;20013;-88
2023/05/25 08:33:30;;;;;;;1.08;0.75;;;;;;;21.39;73.38;100330.88;6150999;23;20018;-89
2023/05/25 08:35:57;;;;;;;3.30;1.73;;;;;;;21.36;73.97;100319.81;6150861;23;20002;-89
2023/05/25 08:38:24;;;;;;;1.30;0.88;;;;;;;20.98;73.64;100315.47;6100417;23;20040;-88
2023/05/25 08:41:08;;;;;;;1.15;1.08;;;;;;;21.22;75.89;100344.13;6149697;23;20716;-88
2023/05/25 08:43:34;;;;;;;0.30;0.30;;;;;;;21.29;75.18;100300.56;6076190;23;20084;-88
2023/05/25 08:46:04;;;;;;;1.35;1.00;;;;;;;21.59;72.30;100332.00;6099320;23;20090;-88
2023/05/25 08:48:30;;;;;;;1.75;0.90;;;;;;;21.60;73.58;100330.72;6075581;23;20448;-88
2023/05/25 08:50:59;;;;;;;1.98;1.55;;;;;;;21.71;71.28;100327.97;6099344;23;20100;-87
2023/05/25 08:53:25;;;;;;;0.93;0.85;;;;;;;21.99;71.06;100345.81;6100058;23;20013;-88
2023/05/25 08:55:53;;;;;;;1.02;0.65;;;;;;;22.19;69.39;100330.72;6076044;23;20029;-88
2023/05/25 08:58:23;;;;;;;1.05;0.90;;;;;;;22.27;66.25;100332.53;6125310;23;20080;-88
2023/05/25 09:01:07;;;;;;;2.00;0.80;;;;;;;22.07;66.68;100341.22;6124428;23;20050;-88
2023/05/25 09:03:32;;;;;;;;;;;;;;;21.73;68.40;100351.56;6117207;23;20072;-88
2023/05/25 09:05:58;;;;;;;1.23;0.82;;;;;;;21.64;70.99;100342.53;6124960;23;19916;-88
2023/05/25 09:08:25;;;;;;;0.32;0.32;;;;;;;21.96;70.98;100307.28;6126041;23;20020;-95
2023/05/25 09:10:51;;;;;;;0.68;0.68;;;;;;;22.41;68.96;100352.56;6125707;23;20018;-94
2023/05/25 09:13:17;;;;;;;1.02;1.02;;;;;;;22.70;67.00;100340.81;6125557;23;20100;-94
2023/05/25 09:15:43;;;;;;;1.08;1.00;;;;;;;22.82;66.98;100345.19;6100771;23;20436;-93
2023/05/25 09:18:08;;;;;;;2.25;1.58;;;;;;;22.66;63.02;100329.72;6101207;23;20001;-94
2023/05/25 09:20:33;;;;;;;1.30;1.13;;;;;;;22.73;64.35;100331.31;6125958;23;20018;-93
2023/05/25 09:22:59;;;;;;;2.72;1.80;;;;;;;22.67;67.32;100350.31;6101370;23;20470;-94
2023/05/25 09:25:27;;;;;;;0.80;0.73;;;;;;;22.63;68.40;100335.66;6125544;23;20128;-95
2023/05/25 09:27:52;;;;;;;2.05;1.35;;;;;;;22.90;65.00;100340.56;6125725;23;20009;-94
2023/05/25 09:30:18;;;;;;;1.17;1.05;;;;;;;23.10;64.41;100340.28;6149806;23;20017;-95
2023/05/25 09:32:43;;;;;;;2.10;1.42;;;;;;;23.17;60.63;100310.72;6100002;23;20025;-94
2023/05/25 09:35:13;;;;;;;1.00;0.80;;;;;;;23.83;60.62;100338.03;6125392;23;20368;-94
2023/05/25 09:37:40;;;;;;;0.77;0.77;;;;;;;23.83;57.67;100329.53;6126132;23;20396;-95
2023/05/25 09:40:08;;;;;;;1.30;0.73;;;;;;;24.01;57.85;100343.13;6125707;23;20013;-95
2023/05/25 09:42:34;;;;;;;1.23;1.13;;;;;;;23.93;56.11;100327.97;6125869;23;20014;-94
2023/05/25 09:45:00;;;;;;;1.70;1.23;;;;;;;23.83;58.10;100331.59;6099952;23;20056;-94
2023/05/25 09:47:26;;;;;;;1.38;1.00;;;;;;;24.06;59.86;100316.78;6125005;23;20041;-95
2023/05/25 09:49:52;;;;;;;1.02;0.93;;;;;;;24.25;55.06;100316.22;6123372;23;20017;-88
2023/05/25 09:52:18;;;;;;;1.17;0.80;;;;;;;24.67;56.40;100340.41;6124475;23;20448;-88
2023/05/25 09:54:48;;;;;;;0.95;0.55;;;;;;;24.62;53.68;100350.50;6147929;23;20025;-89
2023/05/25 09:57:15;;;;;;;1.25;1.17;;;;;;;24.48;53.49;100314.75;6124607;23;20032;-88
2023/05/25 09:59:41;;;;;;;0.82;0.82;;;;;;;24.53;53.40;100325.28;6122639;23;20052;-88
2023/05/25 10:02:07;;;;;;;1.33;0.70;;;;;;;24.45;52.52;100324.31;6147925;23;20055;-88
2023/05/25 10:04:32;;;;;;;1.25;0.77;;;;;;;24.85;52.99;100340.53;6124437;23;20526;-89
2023/05/25 10:06:59;;;;;;;0.60;0.60;;;;;;;24.73;51.74;100324.88;6149181;23;20036;-87
2023/05/25 10:09:28;;;;;;;0.80;0.80;;;;;;;24.73;52.71;100356.06;6123645;23;20017;-87
2023/05/25 10:11:56;;;;;;;1.27;0.88;;;;;;;24.66;51.32;100316.94;6150110;23;20438;-88
2023/05/25 10:14:24;;;;;;;0.60;0.45;;;;;;;24.69;51.72;100310.22;6122610;23;20100;-87
2023/05/25 10:16:52;;;;;;;0.82;0.80;;;;;;;24.68;51.08;100307.91;6122746;23;20009;-92
2023/05/25 10:19:21;;;;;;;1.20;0.90;;;;;;;24.69;53.67;100330.06;6124469;23;20348;-93
2023/05/25 10:21:58;;;;;;;1.25;1.20;;;;;;;24.99;51.78;100328.00;6100014;23;20009;-93
2023/05/25 10:24:31;;;;;;;0.82;0.82;;;;;;;25.09;50.89;100314.25;6124009;23;20041;-94
2023/05/25 10:27:00;;;;;;;0.60;0.60;;;;;;;25.08;49.95;100322.00;6125307;23;20014;-94
2023/05/25 10:29:27;;;;;;;1.08;0.75;;;;;;;24.62;50.67;100316.47;6102451;23;20029;-94
2023/05/25 10:31:53;;;;;;;1.60;1.48;;;;;;;24.87;51.26;100323.00;6101547;23;20018;-94
2023/05/25 10:34:19;;;;;;;0.30;0.30;;;;;;;24.99;50.81;100310.97;6102379;23;20014;-87
2023/05/25 10:36:47;;;;;;;1.35;1.23;;;;;;;25.50;51.83;100337.56;6152629;23;20331;-87
2023/05/25 10:39:14;;;;;;;2.38;1.27;;;;;;;25.59;50.66;100333.63;6125634;23;20009;-87
2023/05/25 10:41:40;;;;;;;0.85;0.70;;;;;;;25.74;49.01;100328.28;6152301;23;20002;-87
2023/05/25 10:44:07;;;;;;;1.15;0.98;;;;;;;25.44;47.76;100293.47;6151821;23;20016;-87
2023/05/25 10:46:33;;;;;;;1.05;0.70;;;;;;;25.13;50.13;100313.97;6124831;23;20468;-88
2023/05/25 10:49:01;;;;;;;0.80;0.77;;;;;;;25.28;49.36;100305.78;6151428;23;20044;-87
2023/05/25 10:51:56;;;;;;;1.13;1.02;;;;;;;25.22;49.99;100319.28;6151837;23;20419;-87
2023/05/25 10:54:21;;;;;;;1.58;1.40;;;;;;;25.25;51.04;100312.53;6123804;23;20483;-87
2023/05/25 10:57:16;;;;;;;0.80;0.73;;;;;;;25.19;50.30;100306.94;6077336;23;20017;-87
2023/05/25 10:59:44;;;;;;;3.80;1.50;;;;;;;24.94;50.72;100294.81;6099651;23;20022;-87
2023/05/25 11:02:10;;;;;;;0.22;0.22;;;;;;;25.06;50.02;100310.41;6096780;23;20060;-88
2023/05/25 11:04:36;;;;;;;0.75;0.68;;;;;;;25.04;51.95;100310.16;6095931;23;20017;-87
2023/05/25 11:07:04;;;;;;;0.93;0.63;;;;;;;25.35;49.99;100311.66;6096655;23;20049;-88
2023/05/25 11:09:35;;;;;;;0.55;0.52;;;;;;;25.29;52.04;100287.47;6095618;23;20029;-87
2023/05/25 11:12:02;;;;;;;1.20;0.95;;;;;;;25.72;50.64;100296.75;6121288;23;20022;-87
2023/05/25 11:14:29;;;;;;;1.10;1.00;;;;;;;26.07;48.74;100300.72;6094916;23;20069;-86
2023/05/25 11:17:10;;;;;;;0.65;0.65;;;;;;;26.05;47.82;100298.38;6095917;23;20020;-86
2023/05/25 11:19:50;;;;;;;0.90;0.88;;;;;;;25.83;48.54;100273.91;6144626;23;20018;-87
2023/05/25 11:22:34;;;;;;;0.80;0.80;;;;;;;25.87;48.01;100282.91;6121133;23;20018;-86
2023/05/25 11:25:04;;;;;;;1.70;1.08;;;;;;;25.73;47.79;100284.09;6119677;23;20021;-87